DW6865 Weather Reports


Display with metric or nautical units.
time (UTC)temp
F
wind
direction
speed
MPH
gust
MPH
rain 1hr
in
rain 24hr
in
rain mn
in
humidity
%
barometer
mb
20180919200025 64 110 0.0 2.0 0.00 0.00 0.00 61 1018.4
20180919193032 63 116 2.0 5.0 0.00 0.00 0.00 65 1018.6
20180919190016 61 101 4.0 5.0 0.00 0.00 0.00 71 1018.9
20180919183022 60 125 3.0 4.0 0.00 0.00 0.00 76 1019.0
20180919180022 57 110 1.0 4.0 0.00 0.00 0.00 83 1019.3
20180919173030 56 50 1.0 3.0 0.00 0.00 0.00 86 1019.5
20180919170014 55 100 0.0 3.0 0.00 0.00 0.00 87 1019.6
20180919163018 53 104 1.0 3.0 0.00 0.00 0.00 89 1019.5
20180919160023 52 79 0.0 1.0 0.00 0.00 0.00 89 1019.5
20180919153031 52 63 0.0 0.0 0.00 0.00 0.00 93 1019.4
20180919150016 48 354 0.0 0.0 0.00 0.00 0.00 98 1019.3
20180919143021 46 354 0.0 0.0 0.00 0.00 0.00 98 1019.2
20180919140023 46 354 0.0 0.0 0.00 0.00 0.00 98 1019.2
20180919133030 47 77 0.0 0.0 0.00 0.00 0.00 97 1018.9
20180919130015 48 76 0.0 1.0 0.00 0.00 0.00 97 1018.8
20180919123020 48 276 0.0 0.0 0.00 0.00 0.00 98 1018.8
20180919120025 47 276 0.0 0.0 0.00 0.00 0.00 97 1018.8
20180919113033 47 275 0.0 0.0 0.00 0.00 0.00 97 1018.8
20180919110019 48 276 0.0 0.0 0.00 0.00 0.00 97 1018.6
20180919103018 48 276 0.0 0.0 0.00 0.00 0.00 97 1018.5
20180919100023 49 276 0.0 0.0 0.00 0.00 0.00 97 1018.4
20180919093031 49 276 0.0 0.0 0.00 0.00 0.00 96 1018.2
20180919090032 49 276 0.0 0.0 0.00 0.00 0.00 95 1018.2
20180919083032 50 275 0.0 0.0 0.00 0.00 0.00 94 1018.2
20180919080014 51 276 0.0 0.0 0.00 0.00 0.00 93 1018.2
20180919073018 52 276 0.0 0.0 0.00 0.00 0.00 92 1018.1
20180919070018 52 276 0.0 0.0 0.00 0.00 0.00 91 1018.1
20180919063023 53 276 0.0 1.0 0.00 0.00 0.00 89 1018.0
20180919060032 53 275 0.0 0.0 0.00 0.00 0.00 87 1018.2
20180919053018 53 276 0.0 0.0 0.00 0.00 0.00 84 1018.1
20180919050024 54 276 0.0 1.0 0.00 0.00 0.00 83 1018.3
20180919043032 54 276 0.0 0.0 0.00 0.00 0.00 81 1018.5
20180919040016 55 276 0.0 0.0 0.00 0.00 0.00 75 1018.4
20180919033019 56 276 0.0 1.0 0.00 0.00 0.00 75 1018.4
20180919030020 57 252 0.0 0.0 0.00 0.00 0.00 74 1018.4
20180919023026 59 276 1.0 3.0 0.00 0.00 0.00 68 1018.3
20180919020033 61 287 2.0 3.0 0.00 0.00 0.00 65 1018.0
20180919013019 62 356 1.0 5.0 0.00 0.00 0.00 63 1018.0
20180919010024 64 276 1.0 7.0 0.00 0.00 0.00 60 1017.9
20180919003033 66 331 2.0 5.0 0.00 0.00 0.00 58 1017.9
20180919000018 67 253 1.0 5.0 0.00 0.00 0.00 57 1017.9
20180918233021 66 114 1.0 3.0 0.00 0.00 0.00 60 1018.0
20180918230032 65 105 1.0 4.0 0.00 0.00 0.00 62 1018.2
20180918223016 64 68 2.0 4.0 0.00 0.01 0.00 62 1018.4
20180918220022 64 117 2.0 4.0 0.00 0.01 0.00 64 1018.6
20180918213028 63 89 2.0 5.0 0.00 0.01 0.00 66 1018.9
20180918210455 61 232 0.0 4.0 0.00 0.01 0.00 70 1019.1
20180918203020 61 80 3.0 5.0 0.00 0.01 0.00 71 1019.4